Albrightsville, Pennsylvania
Current Conditions -  °F | °C
As of 8:53 AM on Wednesday 22 Oct 2014 (Local Time) from KMPO Reporting Station
Light Rain Light Rain  
Wind Chill: 44°   Ceiling: 700
Heat Index: 49°   Visibility: 10mi
Dew Point: 46°   Wind: 12mph
Humidity: 90%   Direction: 30°NNE
Pressure: 29.96"   Gusts: 20mph
Location:  41°N, 75.53°W
Report Text: KMPO 221253Z AUTO 03010G17KT 10SM -RA OVC007 09/08 A2996 RMK AO2 CIG 005V011 SLP151 T00940078 TSNO PNO $
Loading
Personal Weather Stations






























Interactive Weather Map New forecast layout! Learn more

10-Day Weather Forecast

Advertisements
Track Severe Weather on mobile